createdAt,value
2022-10-22T00:02:24.144Z,100809.22
2022-10-22T00:04:51.149Z,100814.97
2022-10-22T00:07:18.822Z,100812.72
2022-10-22T00:09:45.806Z,100820.00
2022-10-22T00:12:14.256Z,100820.16
2022-10-22T00:15:06.970Z,100815.03
2022-10-22T00:17:33.534Z,100813.31
2022-10-22T00:19:59.985Z,100808.91
2022-10-22T00:22:26.605Z,100806.34
2022-10-22T00:24:54.678Z,100804.63
2022-10-22T00:27:21.537Z,100812.78
2022-10-22T00:29:48.174Z,100809.06
2022-10-22T00:32:15.546Z,100806.34
2022-10-22T00:34:43.890Z,100812.63
2022-10-22T00:37:10.341Z,100817.91
2022-10-22T00:39:36.821Z,100815.19
2022-10-22T00:42:03.953Z,100807.91
2022-10-22T00:45:04.818Z,100810.59
2022-10-22T00:47:36.817Z,100812.16
2022-10-22T00:50:10.833Z,100808.28
2022-10-22T00:52:37.756Z,100811.84
2022-10-22T00:55:04.894Z,100810.69
2022-10-22T00:57:31.853Z,100805.41
2022-10-22T00:59:58.633Z,100811.00
2022-10-22T01:02:25.250Z,100823.72
2022-10-22T01:04:53.738Z,100816.91
2022-10-22T01:07:22.169Z,100820.78
2022-10-22T01:09:54.538Z,100816.81
2022-10-22T01:12:28.229Z,100821.53
2022-10-22T01:15:34.168Z,100809.97
2022-10-22T01:18:12.114Z,100810.66
2022-10-22T01:21:00.940Z,100807.81
2022-10-22T01:23:57.720Z,100811.06
2022-10-22T01:26:33.148Z,100818.19
2022-10-22T01:29:27.561Z,100813.94
2022-10-22T01:32:05.004Z,100819.66
2022-10-22T01:34:33.514Z,100816.09
2022-10-22T01:37:02.196Z,100814.25
2022-10-22T01:39:30.596Z,100818.19
2022-10-22T01:41:58.034Z,100814.34
2022-10-22T01:47:34.142Z,100809.75
2022-10-22T01:50:31.571Z,100805.50
2022-10-22T01:53:05.659Z,100806.66
2022-10-22T01:56:00.457Z,100810.38
2022-10-22T01:58:45.323Z,100809.38
2022-10-22T02:01:26.148Z,100805.78
2022-10-22T02:04:22.329Z,100795.09
2022-10-22T02:06:50.741Z,100805.63
2022-10-22T02:09:21.881Z,100799.91
2022-10-22T02:11:50.421Z,100791.06
2022-10-22T02:14:21.066Z,100790.38
2022-10-22T02:16:49.434Z,100804.94
2022-10-22T02:19:22.533Z,100799.81
2022-10-22T02:21:49.496Z,100792.84
2022-10-22T02:24:17.672Z,100791.97
2022-10-22T02:27:09.740Z,100795.00
2022-10-22T02:30:03.616Z,100806.88
2022-10-22T02:32:42.604Z,100802.59
2022-10-22T02:35:13.594Z,100808.44
2022-10-22T02:37:41.155Z,100803.16
2022-10-22T02:40:09.115Z,100801.75
2022-10-22T02:42:38.226Z,100800.91
2022-10-22T02:45:06.170Z,100794.63
2022-10-22T02:47:32.645Z,100801.91
2022-10-22T02:49:59.094Z,100799.50
2022-10-22T02:52:25.643Z,100800.50
2022-10-22T02:54:53.539Z,100800.81
2022-10-22T02:59:47.428Z,100806.25
2022-10-22T03:02:13.990Z,100803.53
2022-10-22T03:04:45.057Z,100798.81
2022-10-22T03:07:11.613Z,100804.06
2022-10-22T03:09:38.197Z,100808.09
2022-10-22T03:12:05.122Z,100801.28
2022-10-22T03:14:33.026Z,100811.56
2022-10-22T03:16:59.490Z,100815.44
2022-10-22T03:19:26.047Z,100806.59
2022-10-22T03:21:59.959Z,100813.03
2022-10-22T03:24:34.292Z,100805.88
2022-10-22T03:27:00.738Z,100813.16
2022-10-22T03:29:27.810Z,100824.03
2022-10-22T03:31:55.040Z,100825.03
2022-10-22T03:34:22.663Z,100833.31
2022-10-22T03:36:50.048Z,100833.47
2022-10-22T03:39:19.192Z,100834.47
2022-10-22T03:41:46.718Z,100835.47
2022-10-22T03:44:15.644Z,100835.59
2022-10-22T03:46:42.268Z,100829.34
2022-10-22T03:49:08.987Z,100833.31
2022-10-22T03:51:35.924Z,100844.16
2022-10-22T03:54:06.954Z,100841.59
2022-10-22T03:56:33.667Z,100846.16
2022-10-22T03:59:01.457Z,100848.03
2022-10-22T04:01:29.966Z,100856.31
2022-10-22T04:04:00.777Z,100854.59
2022-10-22T04:06:29.213Z,100858.16
2022-10-22T04:08:55.880Z,100862.72
2022-10-22T04:11:22.733Z,100864.72
2022-10-22T04:13:49.245Z,100861.16
2022-10-22T04:16:22.605Z,100867.44
2022-10-22T04:18:50.858Z,100863.88
2022-10-22T04:21:19.779Z,100867.28
2022-10-22T04:23:48.220Z,100870.00
2022-10-22T04:26:15.886Z,100871.88
2022-10-22T04:28:43.077Z,100869.84
2022-10-22T04:31:15.057Z,100873.28
2022-10-22T04:33:44.336Z,100875.00
2022-10-22T04:36:14.223Z,100879.41
2022-10-22T04:38:41.578Z,100872.13
2022-10-22T04:41:13.245Z,100875.69
2022-10-22T04:43:40.454Z,100867.56
2022-10-22T04:46:09.317Z,100873.97
2022-10-22T04:48:36.695Z,100871.28
2022-10-22T04:51:04.394Z,100873.97
2022-10-22T04:53:30.868Z,100872.13
2022-10-22T04:56:09.599Z,100873.97
2022-10-22T04:58:36.143Z,100876.69
2022-10-22T05:01:14.045Z,100873.97
2022-10-22T05:03:40.998Z,100884.97
2022-10-22T05:06:08.705Z,100890.53
2022-10-22T05:08:35.467Z,100886.13
2022-10-22T05:11:09.745Z,100890.69
2022-10-22T05:13:36.245Z,100891.69
2022-10-22T05:16:02.778Z,100887.13
2022-10-22T05:18:29.230Z,100891.00
2022-10-22T05:20:55.842Z,100890.13
2022-10-22T05:23:22.307Z,100886.41
2022-10-22T05:25:49.515Z,100886.28
2022-10-22T05:28:16.005Z,100888.97
2022-10-22T05:30:42.501Z,100887.13
2022-10-22T05:33:08.993Z,100889.84
2022-10-22T05:35:39.727Z,100892.56
2022-10-22T05:38:06.236Z,100895.25
2022-10-22T05:40:32.714Z,100893.25
2022-10-22T05:42:59.275Z,100895.81
2022-10-22T05:45:26.785Z,100901.09
2022-10-22T05:47:53.256Z,100899.13
2022-10-22T05:50:19.744Z,100904.25
2022-10-22T05:52:46.229Z,100907.69
2022-10-22T05:55:14.002Z,100911.94
2022-10-22T05:57:40.734Z,100912.50
2022-10-22T06:00:10.608Z,100912.22
2022-10-22T06:02:39.717Z,100922.78
2022-10-22T06:05:09.440Z,100925.19
2022-10-22T06:07:36.133Z,100933.03
2022-10-22T06:10:02.820Z,100927.47
2022-10-22T06:12:29.341Z,100930.03
2022-10-22T06:14:57.618Z,100937.16
2022-10-22T06:17:24.076Z,100938.88
2022-10-22T06:19:50.595Z,100935.16
2022-10-22T06:22:17.079Z,100941.44
2022-10-22T06:24:45.226Z,100954.84
2022-10-22T06:27:11.821Z,100943.28
2022-10-22T06:29:38.318Z,100948.72
2022-10-22T06:32:05.118Z,100947.72
2022-10-22T06:34:31.644Z,100956.56
2022-10-22T06:36:58.118Z,100962.84
2022-10-22T06:39:24.722Z,100968.13
2022-10-22T06:41:51.210Z,100972.53
2022-10-22T06:44:22.223Z,100976.25
2022-10-22T06:46:52.954Z,100977.97
2022-10-22T06:49:20.464Z,100986.81
2022-10-22T06:51:50.755Z,100989.53
2022-10-22T06:54:22.042Z,100993.97
2022-10-22T06:56:49.711Z,100996.66
2022-10-22T06:59:16.181Z,101002.09
2022-10-22T07:01:42.988Z,100999.22
2022-10-22T07:04:11.633Z,101011.66
2022-10-22T07:06:38.203Z,101015.09
2022-10-22T07:09:04.834Z,101018.53
2022-10-22T07:11:39.457Z,101019.09
2022-10-22T07:14:06.435Z,101025.09
2022-10-22T07:16:43.202Z,101016.50
2022-10-22T07:19:09.718Z,101019.91
2022-10-22T07:21:36.174Z,101024.91
2022-10-22T07:24:04.950Z,101029.03
2022-10-22T07:26:32.617Z,101032.16
2022-10-22T07:29:00.581Z,101042.72
2022-10-22T07:31:27.380Z,101045.13
2022-10-22T07:33:53.833Z,101046.56
2022-10-22T07:36:20.378Z,101049.97
2022-10-22T07:38:49.143Z,101053.25
2022-10-22T07:41:16.851Z,101053.94
2022-10-22T07:43:43.666Z,101055.38
2022-10-22T07:46:13.694Z,101061.34
2022-10-22T07:48:40.220Z,101062.66
2022-10-22T07:51:06.861Z,101062.19
2022-10-22T07:53:33.821Z,101070.03
2022-10-22T07:56:01.811Z,101075.19
2022-10-22T07:58:28.365Z,101074.06
2022-10-22T08:00:56.390Z,101072.19
2022-10-22T08:03:22.982Z,101078.47
2022-10-22T08:05:52.712Z,101082.06
2022-10-22T08:08:20.057Z,101082.59
2022-10-22T08:10:48.730Z,101076.72
2022-10-22T08:13:15.657Z,101080.69
2022-10-22T08:18:15.002Z,101089.34
2022-10-22T08:20:42.030Z,101091.16
2022-10-22T08:23:08.779Z,101092.66
2022-10-22T08:25:35.335Z,101092.28
2022-10-22T08:28:01.826Z,101088.47
2022-10-22T08:30:29.729Z,101096.16
2022-10-22T08:32:56.783Z,101105.78
2022-10-22T08:35:23.347Z,101094.81
2022-10-22T08:37:49.808Z,101101.88
2022-10-22T08:40:25.827Z,101096.34
2022-10-22T08:43:11.659Z,101104.25
2022-10-22T08:45:44.072Z,101108.63
2022-10-22T08:48:43.047Z,101116.22
2022-10-22T08:51:19.101Z,101116.50
2022-10-22T08:54:11.406Z,101117.94
2022-10-22T08:56:40.976Z,101131.81
2022-10-22T08:59:27.974Z,101133.72
2022-10-22T09:01:54.641Z,101125.59
2022-10-22T09:04:32.883Z,101129.88
2022-10-22T09:07:00.378Z,101146.06
2022-10-22T09:09:31.639Z,101149.50
2022-10-22T09:12:00.413Z,101154.63
2022-10-22T09:14:31.081Z,101145.25
2022-10-22T09:17:36.736Z,101158.19
2022-10-22T09:20:26.240Z,101159.91
2022-10-22T09:23:03.331Z,101153.59
2022-10-22T09:25:33.634Z,101157.66
2022-10-22T09:28:00.194Z,101157.66
2022-10-22T09:30:35.429Z,101165.16
2022-10-22T09:33:06.843Z,101158.84
2022-10-22T09:35:43.925Z,101169.59
2022-10-22T09:38:14.406Z,101180.84
2022-10-22T09:40:47.176Z,101172.81
2022-10-22T09:43:14.852Z,101182.00
2022-10-22T09:45:46.612Z,101187.31
2022-10-22T09:48:30.674Z,101185.59
2022-10-22T09:51:06.748Z,101190.03
2022-10-22T09:53:38.943Z,101195.47
2022-10-22T09:56:20.994Z,101192.91
2022-10-22T09:58:51.090Z,101197.66
2022-10-22T10:01:27.373Z,101200.69
2022-10-22T10:03:54.130Z,101208.03
2022-10-22T10:06:22.976Z,101211.59
2022-10-22T10:08:50.302Z,101208.56
2022-10-22T10:11:29.511Z,101217.28
2022-10-22T10:14:20.230Z,101226.16
2022-10-22T10:16:55.732Z,101229.97
2022-10-22T10:20:00.038Z,101231.34
2022-10-22T10:22:40.731Z,101234.13
2022-10-22T10:25:42.255Z,101238.56
2022-10-22T10:28:36.978Z,101242.66
2022-10-22T10:31:26.788Z,101239.47
2022-10-22T10:34:09.600Z,101240.69
2022-10-22T10:37:04.505Z,101245.81
2022-10-22T10:39:52.483Z,101252.66
2022-10-22T10:42:41.325Z,101253.53
2022-10-22T10:45:19.132Z,101258.81
2022-10-22T10:48:27.262Z,101254.91
2022-10-22T10:51:22.898Z,101259.34
2022-10-22T10:54:10.906Z,101257.31
2022-10-22T10:57:18.702Z,101252.38
2022-10-22T10:59:50.229Z,101252.72
2022-10-22T11:02:34.749Z,101259.56
2022-10-22T11:05:32.241Z,101255.31
2022-10-22T11:08:18.979Z,101258.81
2022-10-22T11:10:49.322Z,101253.19
2022-10-22T11:13:24.923Z,101261.41
2022-10-22T11:16:30.769Z,101258.38
2022-10-22T11:19:07.247Z,101258.06
2022-10-22T11:21:42.726Z,101257.75
2022-10-22T11:24:35.685Z,101259.97
2022-10-22T11:27:28.749Z,101264.28
2022-10-22T11:30:02.726Z,101266.84
2022-10-22T11:32:31.936Z,101264.28
2022-10-22T11:35:05.545Z,101252.13
2022-10-22T11:37:35.495Z,101260.81
2022-10-22T11:40:18.683Z,101258.44
2022-10-22T11:42:49.324Z,101260.13
2022-10-22T11:45:18.691Z,101259.59
2022-10-22T11:47:58.773Z,101264.41
2022-10-22T11:50:43.790Z,101253.97
2022-10-22T11:53:13.219Z,101254.63
2022-10-22T11:55:51.579Z,101249.16
2022-10-22T11:58:27.292Z,101256.66
2022-10-22T12:00:56.045Z,101256.81
2022-10-22T12:03:31.371Z,101248.94
2022-10-22T12:06:11.709Z,101247.19
2022-10-22T12:08:51.224Z,101246.47
2022-10-22T12:11:49.778Z,101247.63
2022-10-22T12:14:29.629Z,101250.19
2022-10-22T12:16:57.953Z,101249.47
2022-10-22T12:19:43.299Z,101249.28
2022-10-22T12:22:20.934Z,101251.50
2022-10-22T12:24:54.502Z,101253.88
2022-10-22T12:27:33.892Z,101252.16
2022-10-22T12:30:01.454Z,101255.25
2022-10-22T12:32:37.279Z,101264.03
2022-10-22T12:35:14.562Z,101253.41
2022-10-22T12:37:41.548Z,101263.03
2022-10-22T12:40:35.009Z,101258.41
2022-10-22T12:43:12.391Z,101262.72
2022-10-22T12:45:45.318Z,101264.97
2022-10-22T12:48:22.435Z,101260.00
2022-10-22T12:50:52.691Z,101266.69
2022-10-22T12:53:28.893Z,101267.06
2022-10-22T12:56:05.501Z,101260.56
2022-10-22T12:59:02.428Z,101261.56
2022-10-22T13:01:36.236Z,101261.25
2022-10-22T13:04:16.695Z,101262.66
2022-10-22T13:06:45.165Z,101263.00
2022-10-22T13:09:26.899Z,101260.63
2022-10-22T13:12:04.790Z,101260.94
2022-10-22T13:14:38.025Z,101263.28
2022-10-22T13:17:07.900Z,101264.44
2022-10-22T13:19:53.897Z,101264.06
2022-10-22T13:22:35.971Z,101262.44
2022-10-22T13:25:13.439Z,101265.31
2022-10-22T13:27:44.849Z,101259.78
2022-10-22T13:30:24.580Z,101264.03
2022-10-22T13:33:04.596Z,101254.97
2022-10-22T13:35:35.805Z,101258.06
2022-10-22T13:38:02.347Z,101255.50
2022-10-22T13:40:28.880Z,101256.19
2022-10-22T13:42:55.359Z,101252.72
2022-10-22T13:45:24.746Z,101253.19
2022-10-22T13:47:54.458Z,101252.84
2022-10-22T13:50:21.522Z,101260.31
2022-10-22T13:52:53.918Z,101254.09
2022-10-22T13:55:28.971Z,101265.00
2022-10-22T13:58:09.703Z,101258.81
2022-10-22T14:00:38.850Z,101252.41
2022-10-22T14:03:05.623Z,101253.38
2022-10-22T14:05:32.684Z,101250.78
2022-10-22T14:08:00.493Z,101260.53
2022-10-22T14:10:27.022Z,101254.50
2022-10-22T14:12:53.993Z,101256.66
2022-10-22T14:15:24.230Z,101251.84
2022-10-22T14:17:54.985Z,101258.84
2022-10-22T14:20:23.771Z,101251.66
2022-10-22T14:22:51.527Z,101252.88
2022-10-22T14:25:25.313Z,101248.34
2022-10-22T14:27:52.065Z,101249.25
2022-10-22T14:30:23.779Z,101257.53
2022-10-22T14:32:50.666Z,101264.78
2022-10-22T14:35:22.673Z,101264.34
2022-10-22T14:37:49.800Z,101259.09
2022-10-22T14:40:18.852Z,101260.19
2022-10-22T14:42:48.090Z,101261.13
2022-10-22T14:45:25.705Z,101270.91
2022-10-22T14:47:55.587Z,101279.66
2022-10-22T14:50:22.174Z,101278.50
2022-10-22T14:52:48.919Z,101281.09
2022-10-22T14:55:20.442Z,101279.56
2022-10-22T14:57:46.897Z,101280.09
2022-10-22T15:00:16.450Z,101283.56
2022-10-22T15:02:43.703Z,101283.91
2022-10-22T15:05:15.499Z,101288.03
2022-10-22T15:07:42.223Z,101284.94
2022-10-22T15:10:09.470Z,101294.72
2022-10-22T15:12:36.865Z,101296.47
2022-10-22T15:15:12.532Z,101298.03
2022-10-22T15:17:40.292Z,101290.50
2022-10-22T15:20:07.210Z,101297.38
2022-10-22T15:22:35.404Z,101298.56
2022-10-22T15:25:10.366Z,101298.94
2022-10-22T15:27:37.114Z,101299.44
2022-10-22T15:30:06.139Z,101311.09
2022-10-22T15:32:34.003Z,101313.81
2022-10-22T15:35:27.622Z,101314.84
2022-10-22T15:37:55.502Z,101310.75
2022-10-22T15:40:21.949Z,101307.84
2022-10-22T15:42:48.419Z,101310.06
2022-10-22T15:45:15.706Z,101312.44
2022-10-22T15:47:47.443Z,101311.25
2022-10-22T15:50:14.802Z,101321.00
2022-10-22T15:52:41.260Z,101322.53
2022-10-22T15:57:39.763Z,101310.56
2022-10-22T16:00:07.398Z,101308.69
2022-10-22T16:02:41.234Z,101313.09
2022-10-22T16:05:09.872Z,101312.06
2022-10-22T16:07:36.387Z,101311.88
2022-10-22T16:10:02.964Z,101303.81
2022-10-22T16:12:29.481Z,101307.19
2022-10-22T16:15:08.285Z,101300.84
2022-10-22T16:17:34.837Z,101305.09
2022-10-22T16:20:01.602Z,101308.66
2022-10-22T16:22:28.202Z,101313.94
2022-10-22T16:24:58.476Z,101305.53
2022-10-22T16:27:25.076Z,101306.16
2022-10-22T16:29:51.537Z,101307.16
2022-10-22T16:32:18.293Z,101310.00
2022-10-22T16:34:45.394Z,101313.38
2022-10-22T16:37:11.868Z,101314.19
2022-10-22T16:39:38.441Z,101310.84
2022-10-22T16:42:05.029Z,101319.53
2022-10-22T16:44:33.406Z,101323.75
2022-10-22T16:47:00.924Z,101330.16
2022-10-22T16:49:27.483Z,101334.53
2022-10-22T16:51:53.955Z,101340.59
2022-10-22T16:54:22.426Z,101342.41
2022-10-22T16:56:49.247Z,101340.47
2022-10-22T16:59:15.828Z,101335.81
2022-10-22T17:01:42.377Z,101336.28
2022-10-22T17:04:13.345Z,101337.91
2022-10-22T17:06:39.898Z,101342.13
2022-10-22T17:09:06.467Z,101343.44
2022-10-22T17:11:36.298Z,101343.91
2022-10-22T17:14:06.741Z,101343.31
2022-10-22T17:16:33.200Z,101347.22
2022-10-22T17:19:02.463Z,101343.09
2022-10-22T17:21:28.972Z,101356.47
2022-10-22T17:24:01.350Z,101352.19
2022-10-22T17:26:27.947Z,101351.59
2022-10-22T17:28:54.848Z,101355.63
2022-10-22T17:31:22.689Z,101357.09
2022-10-22T17:33:50.976Z,101357.72
2022-10-22T17:36:24.240Z,101361.75
2022-10-22T17:38:53.548Z,101365.94
2022-10-22T17:41:25.633Z,101360.94
2022-10-22T17:43:52.289Z,101354.94
2022-10-22T17:46:27.838Z,101361.84
2022-10-22T17:48:57.052Z,101355.00
2022-10-22T17:51:25.440Z,101359.16
2022-10-22T17:53:52.597Z,101353.03
2022-10-22T17:56:22.654Z,101359.63
2022-10-22T17:58:50.096Z,101358.22
2022-10-22T18:01:20.736Z,101356.78
2022-10-22T18:03:47.325Z,101363.53
2022-10-22T18:06:16.004Z,101365.81
2022-10-22T18:08:42.889Z,101370.66
2022-10-22T18:11:12.781Z,101378.25
2022-10-22T18:13:39.289Z,101378.56
2022-10-22T18:16:10.422Z,101379.00
2022-10-22T18:18:36.995Z,101374.00
2022-10-22T18:21:03.887Z,101370.00
2022-10-22T18:23:30.466Z,101361.13
2022-10-22T18:25:58.479Z,101366.88
2022-10-22T18:28:24.936Z,101370.72
2022-10-22T18:30:51.446Z,101372.03
2022-10-22T18:33:19.210Z,101373.31
2022-10-22T18:35:46.815Z,101369.75
2022-10-22T18:38:13.420Z,101374.31
2022-10-22T18:40:46.686Z,101367.16
2022-10-22T18:43:13.303Z,101376.34
2022-10-22T18:45:45.091Z,101376.47
2022-10-22T18:48:14.933Z,101381.19
2022-10-22T18:50:41.606Z,101379.47
2022-10-22T18:53:08.429Z,101382.34
2022-10-22T18:55:40.018Z,101382.34
2022-10-22T18:58:07.416Z,101382.34
2022-10-22T19:00:37.143Z,101384.22
2022-10-22T19:03:03.788Z,101376.19
2022-10-22T19:05:34.494Z,101377.19
2022-10-22T19:08:00.940Z,101368.19
2022-10-22T19:10:34.517Z,101363.91
2022-10-22T19:13:01.001Z,101366.75
2022-10-22T19:17:58.890Z,101360.75
2022-10-22T19:20:25.388Z,101366.78
2022-10-22T19:22:53.340Z,101345.59
2022-10-22T19:25:21.390Z,101354.88
2022-10-22T19:27:48.804Z,101354.16
2022-10-22T19:30:15.864Z,101347.16
2022-10-22T19:32:42.585Z,101350.88
2022-10-22T19:35:11.161Z,101351.88
2022-10-22T19:37:37.686Z,101355.44
2022-10-22T19:40:08.790Z,101359.72
2022-10-22T19:42:38.462Z,101363.78
2022-10-22T19:45:09.775Z,101356.34
2022-10-22T19:47:36.397Z,101367.78
2022-10-22T19:50:02.960Z,101363.06
2022-10-22T19:52:29.477Z,101357.19
2022-10-22T19:55:00.501Z,101353.03
2022-10-22T19:57:26.984Z,101348.88
2022-10-22T19:59:53.428Z,101341.13
2022-10-22T20:02:19.955Z,101347.28
2022-10-22T20:04:49.943Z,101336.13
2022-10-22T20:07:17.278Z,101343.97
2022-10-22T20:09:43.797Z,101347.69
2022-10-22T20:12:10.310Z,101350.56
2022-10-22T20:14:38.171Z,101350.56
2022-10-22T20:17:04.781Z,101353.16
2022-10-22T20:19:32.422Z,101352.84
2022-10-22T20:24:32.182Z,101354.84
2022-10-22T20:26:58.653Z,101356.97
2022-10-22T20:29:25.163Z,101359.25
2022-10-22T20:31:51.911Z,101361.66
2022-10-22T20:34:22.446Z,101365.81
2022-10-22T20:36:48.926Z,101355.34
2022-10-22T20:39:16.702Z,101353.34
2022-10-22T20:41:43.336Z,101361.22
2022-10-22T20:44:14.678Z,101357.38
2022-10-22T20:46:41.691Z,101361.66
2022-10-22T20:49:11.489Z,101356.22
2022-10-22T20:51:38.442Z,101365.25
2022-10-22T20:54:09.042Z,101362.53
2022-10-22T20:56:37.786Z,101375.13
2022-10-22T20:59:05.411Z,101373.25
2022-10-22T21:01:47.555Z,101364.25
2022-10-22T21:04:20.368Z,101367.66
2022-10-22T21:06:48.589Z,101367.97
2022-10-22T21:09:15.497Z,101367.25
2022-10-22T21:11:43.254Z,101362.22
2022-10-22T21:14:20.197Z,101359.06
2022-10-22T21:16:50.003Z,101367.38
2022-10-22T21:19:18.287Z,101366.66
2022-10-22T21:21:44.794Z,101356.63
2022-10-22T21:24:16.138Z,101360.50
2022-10-22T21:26:43.633Z,101368.81
2022-10-22T21:29:12.155Z,101369.97
2022-10-22T21:31:40.275Z,101375.41
2022-10-22T21:34:35.462Z,101369.56
2022-10-22T21:37:05.466Z,101357.69
2022-10-22T21:39:32.217Z,101359.84
2022-10-22T21:41:58.785Z,101370.00
2022-10-22T21:44:26.138Z,101370.84
2022-10-22T21:46:52.703Z,101364.41
2022-10-22T21:49:19.567Z,101357.25
2022-10-22T21:51:46.058Z,101361.84
2022-10-22T21:54:17.038Z,101362.00
2022-10-22T21:56:43.569Z,101354.84
2022-10-22T21:59:10.032Z,101359.41
2022-10-22T22:01:37.652Z,101363.00
2022-10-22T22:04:08.017Z,101365.84
2022-10-22T22:06:35.178Z,101367.56
2022-10-22T22:09:04.211Z,101372.16
2022-10-22T22:11:31.445Z,101372.16
2022-10-22T22:14:07.186Z,101363.13
2022-10-22T22:16:34.548Z,101369.44
2022-10-22T22:21:42.051Z,101368.31
2022-10-22T22:24:13.054Z,101361.88
2022-10-22T22:26:40.134Z,101360.59
2022-10-22T22:29:06.662Z,101350.03
2022-10-22T22:31:34.915Z,101352.03
2022-10-22T22:34:05.888Z,101353.03
2022-10-22T22:36:35.390Z,101350.59
2022-10-22T22:39:02.315Z,101351.75
2022-10-22T22:41:28.812Z,101348.47
2022-10-22T22:44:03.392Z,101342.31
2022-10-22T22:46:31.192Z,101345.03
2022-10-22T22:48:57.653Z,101347.03
2022-10-22T22:51:24.495Z,101347.03
2022-10-22T22:53:51.350Z,101331.72
2022-10-22T22:56:24.043Z,101339.88
2022-10-22T22:58:51.051Z,101343.31
2022-10-22T23:01:21.596Z,101339.16
2022-10-22T23:03:53.030Z,101332.16
2022-10-22T23:06:25.450Z,101318.69
2022-10-22T23:08:53.049Z,101321.28
2022-10-22T23:11:20.321Z,101317.72
2022-10-22T23:13:47.388Z,101310.53
2022-10-22T23:16:19.646Z,101308.81
2022-10-22T23:18:48.324Z,101311.69
2022-10-22T23:21:18.076Z,101309.13
2022-10-22T23:23:46.491Z,101308.41
2022-10-22T23:26:15.074Z,101314.84
2022-10-22T23:28:41.565Z,101318.69
2022-10-22T23:31:10.646Z,101319.84
2022-10-22T23:33:37.106Z,101328.00
2022-10-22T23:36:06.903Z,101322.41
2022-10-22T23:38:36.307Z,101327.72
2022-10-22T23:41:03.872Z,101330.44
2022-10-22T23:43:31.039Z,101328.72
2022-10-22T23:45:58.986Z,101317.53
2022-10-22T23:48:25.563Z,101322.53
2022-10-22T23:53:23.475Z,101313.97
2022-10-22T23:55:53.927Z,101310.38
2022-10-22T23:58:20.405Z,101294.94
